Time;durP1;ratioP1;P1;durP2;ratioP2;P2;SDS_P1;SDS_P2;PMS_P1;PMS_P2;Temp;Humidity;BMP_temperature;BMP_pressure;BME280_temperature;BME280_humidity;BME280_pressure;Samples;Min_cycle;Max_cycle;Signal;HPM_P1;HPM_P2
2021/12/14 00:00:07;;;;;;;12.90;10.18;;;;;;;7.46;97.29;102624.88;5092399;28;20073;-84
2021/12/14 00:02:33;;;;;;;12.40;10.05;;;;;;;7.48;97.51;102627.47;5089912;28;20024;-84
2021/12/14 00:05:00;;;;;;;12.00;9.88;;;;;;;7.47;97.89;102626.59;5090903;28;20031;-84
2021/12/14 00:07:26;;;;;;;13.02;10.60;;;;;;;7.40;97.44;102604.16;5098956;28;20055;-84
2021/12/14 00:10:00;;;;;;;11.32;9.13;;;;;;;7.48;97.60;102624.84;5091642;28;20144;-84
2021/12/14 00:12:41;;;;;;;13.73;10.05;;;;;;;7.47;97.59;102625.75;5085028;28;20017;-84
2021/12/14 00:15:15;;;;;;;12.82;10.13;;;;;;;7.44;98.14;102620.59;5083630;28;20040;-84
2021/12/14 00:17:40;;;;;;;11.85;10.30;;;;;;;7.46;97.90;102617.03;5089775;28;20028;-84
2021/12/14 00:20:28;;;;;;;13.73;10.43;;;;;;;7.46;98.66;102603.09;5091944;28;20138;-84
2021/12/14 00:25:37;;;;;;;11.85;9.70;;;;;;;7.45;98.12;102623.19;5090067;28;20040;-84
2021/12/14 00:28:08;;;;;;;13.48;9.57;;;;;;;7.42;98.38;102612.81;5090385;28;20039;-84
2021/12/14 00:30:35;;;;;;;13.20;9.75;;;;;;;7.42;98.24;102622.44;5089132;28;20053;-85
2021/12/14 00:33:02;;;;;;;13.55;10.40;;;;;;;7.39;98.57;102618.16;5091367;28;20455;-84
2021/12/14 00:35:28;;;;;;;14.13;10.27;;;;;;;7.40;98.37;102629.47;5092137;28;20482;-84
2021/12/14 00:37:55;;;;;;;15.18;10.40;;;;;;;7.39;98.37;102628.63;5090919;28;20048;-78
2021/12/14 00:40:28;;;;;;;12.63;10.50;;;;;;;7.41;98.52;102634.66;5089660;28;20085;-78
2021/12/14 00:42:57;;;;;;;13.45;10.40;;;;;;;7.40;98.70;102643.44;5088880;28;20031;-84
2021/12/14 00:45:27;;;;;;;12.85;10.52;;;;;;;7.34;98.78;102630.53;5086082;28;20024;-84
2021/12/14 00:47:53;;;;;;;12.48;10.40;;;;;;;7.39;98.76;102644.31;5091474;28;20035;-84
2021/12/14 00:50:22;;;;;;;12.40;9.85;;;;;;;7.38;98.68;102645.22;5088806;28;20027;-84
2021/12/14 00:52:48;;;;;;;12.40;9.98;;;;;;;7.34;99.03;102646.25;5073267;28;20031;-84
2021/12/14 00:55:20;;;;;;;11.75;10.27;;;;;;;7.40;98.82;102666.13;5090899;28;20023;-85
2021/12/14 00:57:46;;;;;;;;;;;;;;;7.48;98.33;102669.38;5090184;28;20071;-84
2021/12/14 01:00:18;;;;;;;13.50;10.15;;;;;;;7.39;98.72;102661.81;5083615;28;20667;-84
2021/12/14 01:02:45;;;;;;;11.65;9.93;;;;;;;7.42;98.54;102664.31;5089309;28;20471;-84
2021/12/14 01:05:21;;;;;;;12.93;10.25;;;;;;;7.41;98.56;102671.31;5090869;28;20027;-85
2021/12/14 01:07:47;;;;;;;13.60;11.38;;;;;;;7.36;98.68;102649.66;5083607;28;20167;-84
2021/12/14 01:10:31;;;;;;;14.38;10.85;;;;;;;7.41;98.47;102646.91;5089562;28;20568;-84
2021/12/14 01:13:03;;;;;;;12.65;10.23;;;;;;;7.35;98.75;102640.09;5098865;28;20032;-84
2021/12/14 01:24:08;;;;;;;17.40;11.27;;;;;;;7.36;98.68;102649.66;5084051;28;20043;-85
2021/12/14 01:26:36;;;;;;;13.10;10.07;;;;;;;7.34;98.54;102646.25;5088522;28;20057;-84
2021/12/14 01:29:06;;;;;;;14.32;10.43;;;;;;;7.33;98.42;102628.81;5090601;28;20028;-84
2021/12/14 01:31:37;;;;;;;14.02;9.95;;;;;;;7.32;98.30;102626.25;5089950;28;20160;-84
2021/12/14 01:34:19;;;;;;;11.15;9.95;;;;;;;7.29;98.35;102627.22;5081082;28;20020;-85
2021/12/14 01:36:51;;;;;;;13.88;10.13;;;;;;;7.34;98.62;102624.44;5090401;28;20517;-84
2021/12/14 01:42:12;;;;;;;12.68;9.38;;;;;;;7.31;98.26;102620.16;5090057;28;20040;-85
2021/12/14 01:44:45;;;;;;;12.32;9.52;;;;;;;7.28;98.08;102615.03;5089945;28;20422;-85
2021/12/14 01:47:19;;;;;;;12.95;9.55;;;;;;;7.29;98.25;102616.72;5089957;28;20498;-84
2021/12/14 01:49:45;;;;;;;13.05;8.80;;;;;;;7.27;97.69;102622.94;5090096;28;20027;-84
2021/12/14 01:52:19;;;;;;;12.13;8.23;;;;;;;7.26;97.67;102626.44;5087214;28;20541;-85
2021/12/14 01:54:50;;;;;;;12.27;8.15;;;;;;;7.22;98.08;102615.22;5088065;28;20391;-84
2021/12/14 01:57:21;;;;;;;12.05;8.60;;;;;;;7.25;97.75;102609.88;5082781;28;20020;-85
2021/12/14 01:59:54;;;;;;;11.98;8.20;;;;;;;7.25;97.84;102609.03;5089978;28;20035;-85
2021/12/14 02:02:41;;;;;;;11.13;7.72;;;;;;;7.27;97.94;102608.06;5092593;28;20024;-85
2021/12/14 02:05:16;;;;;;;11.90;7.47;;;;;;;7.24;97.62;102602.94;5089094;28;20024;-84
2021/12/14 02:07:42;;;;;;;9.23;7.07;;;;;;;7.22;97.40;102589.03;5089256;28;20035;-86
2021/12/14 02:10:14;;;;;;;9.98;6.95;;;;;;;7.20;97.41;102586.47;5087600;28;20051;-79
2021/12/14 02:12:43;;;;;;;10.43;6.90;;;;;;;7.18;97.30;102566.47;5089504;28;20027;-85
2021/12/14 02:15:25;;;;;;;8.77;6.45;;;;;;;7.19;97.16;102599.56;5090329;28;20035;-84
2021/12/14 02:17:52;;;;;;;7.60;6.13;;;;;;;7.16;96.99;102584.81;5088486;28;20020;-84
2021/12/14 02:20:22;;;;;;;11.38;6.88;;;;;;;7.17;97.08;102598.78;5087431;28;20040;-84
2021/12/14 02:22:48;;;;;;;11.27;6.43;;;;;;;7.12;96.87;102588.44;5089247;28;20020;-85
2021/12/14 02:25:13;;;;;;;8.82;6.25;;;;;;;7.17;97.12;102601.38;5086066;28;20024;-84
2021/12/14 02:27:45;;;;;;;9.77;6.68;;;;;;;7.11;96.57;102591.13;5089352;28;20503;-84
2021/12/14 02:30:25;;;;;;;8.18;6.28;;;;;;;7.07;97.16;102579.91;5089096;28;20032;-84
2021/12/14 02:32:51;;;;;;;9.85;6.40;;;;;;;7.14;96.88;102597.13;5089243;28;20098;-85
2021/12/14 02:35:20;;;;;;;8.43;6.85;;;;;;;7.13;96.98;102594.53;5089045;28;20468;-84
2021/12/14 02:38:08;;;;;;;8.73;6.35;;;;;;;7.16;96.80;102594.44;5088809;28;20047;-84
2021/12/14 02:40:55;;;;;;;9.73;7.03;;;;;;;7.08;96.56;102585.97;5080573;28;20040;-84
2021/12/14 02:43:34;;;;;;;8.05;6.60;;;;;;;7.13;96.45;102605.00;5078900;28;20032;-85
2021/12/14 02:46:05;;;;;;;13.80;6.72;;;;;;;7.12;96.61;102605.91;5089792;28;20103;-84
2021/12/14 02:48:30;;;;;;;9.07;6.53;;;;;;;7.09;96.66;102595.53;5088918;28;20035;-81
2021/12/14 02:50:56;;;;;;;9.00;6.30;;;;;;;7.09;96.28;102603.41;5093007;28;20019;-85
2021/12/14 02:53:22;;;;;;;9.30;6.82;;;;;;;7.05;96.45;102601.78;5093309;28;20028;-84
2021/12/14 02:55:47;;;;;;;9.85;6.72;;;;;;;7.11;96.61;102601.59;5093823;28;20035;-85
2021/12/14 02:58:13;;;;;;;11.02;7.22;;;;;;;7.02;96.27;102584.41;5091259;28;20428;-84
2021/12/14 03:00:46;;;;;;;8.82;6.43;;;;;;;7.05;96.42;102576.47;5084467;28;20077;-84
2021/12/14 03:03:15;;;;;;;11.00;6.85;;;;;;;7.03;96.53;102566.97;5091922;28;20036;-84
2021/12/14 03:05:43;;;;;;;10.30;7.00;;;;;;;7.07;96.41;102574.66;5091083;28;20032;-84
2021/12/14 03:08:18;;;;;;;8.75;6.80;;;;;;;6.99;96.11;102570.56;5093245;28;20107;-85
2021/12/14 03:13:17;;;;;;;11.52;6.97;;;;;;;6.98;96.74;102567.09;5099283;28;20032;-84
2021/12/14 03:15:52;;;;;;;12.43;7.00;;;;;;;7.02;96.43;102571.34;5089096;28;20061;-84
2021/12/14 03:18:31;;;;;;;9.68;6.97;;;;;;;7.01;96.54;102560.91;5086639;28;20427;-84
2021/12/14 03:21:08;;;;;;;9.77;7.53;;;;;;;6.96;96.54;102549.75;5086022;28;20363;-84
2021/12/14 03:23:47;;;;;;;11.15;7.47;;;;;;;6.99;96.61;102552.25;5091518;28;20036;-84
2021/12/14 03:26:17;;;;;;;11.57;7.65;;;;;;;6.92;96.95;102543.75;5091761;28;20039;-84
2021/12/14 03:28:47;;;;;;;11.80;7.80;;;;;;;6.91;96.64;102542.91;5091941;28;20035;-84
2021/12/14 03:31:31;;;;;;;10.98;8.13;;;;;;;6.98;96.85;102559.25;5092298;28;20028;-85
2021/12/14 03:34:17;;;;;;;12.05;8.45;;;;;;;6.98;96.84;102558.41;5084443;28;20436;-83
2021/12/14 03:36:52;;;;;;;11.25;8.20;;;;;;;6.98;96.83;102550.53;5091904;28;20445;-83
2021/12/14 03:39:23;;;;;;;13.65;8.82;;;;;;;6.90;97.31;102543.81;5091714;28;20038;-83
2021/12/14 03:41:52;;;;;;;12.70;9.57;;;;;;;6.91;96.87;102548.13;5092025;28;20039;-84
2021/12/14 03:44:25;;;;;;;15.70;10.32;;;;;;;6.95;97.11;102548.03;5092043;28;20032;-85
2021/12/14 03:47:05;;;;;;;12.57;9.90;;;;;;;6.95;96.95;102563.72;5091831;28;20024;-84
2021/12/14 03:49:35;;;;;;;14.88;10.45;;;;;;;6.92;97.15;102556.84;5087219;28;20304;-84
2021/12/14 03:52:05;;;;;;;14.65;10.85;;;;;;;6.93;97.18;102570.78;5085304;28;20047;-84
2021/12/14 03:54:30;;;;;;;16.52;11.48;;;;;;;6.88;97.08;102579.63;5091112;28;20024;-85
2021/12/14 03:56:57;;;;;;;16.35;11.30;;;;;;;6.93;97.31;102602.16;5090837;28;20545;-84
2021/12/14 03:59:26;;;;;;;17.38;12.25;;;;;;;6.87;97.50;102592.75;5091706;28;20024;-85
2021/12/14 04:01:52;;;;;;;14.25;11.25;;;;;;;6.88;97.53;102594.47;5090633;28;20031;-84
2021/12/14 04:04:24;;;;;;;15.35;11.70;;;;;;;6.87;97.61;102597.97;5090361;28;20081;-84
2021/12/14 04:06:52;;;;;;;;;;;;;;;7.01;97.17;102605.41;5089910;28;20070;-85
2021/12/14 04:09:23;;;;;;;15.43;11.95;;;;;;;6.87;97.26;102604.06;5090212;28;19911;-84
2021/12/14 04:11:49;;;;;;;16.00;11.82;;;;;;;6.94;97.53;102617.81;5091675;28;20017;-84
2021/12/14 04:14:15;;;;;;;18.00;12.48;;;;;;;6.94;97.68;102611.72;5091880;28;20149;-84
2021/12/14 04:16:43;;;;;;;18.00;12.93;;;;;;;6.94;97.74;102612.59;5092302;28;20024;-84
2021/12/14 04:19:15;;;;;;;19.08;12.60;;;;;;;6.94;97.82;102603.88;5092055;28;20403;-84
2021/12/14 04:21:44;;;;;;;18.35;13.35;;;;;;;6.91;97.68;102587.38;5087710;28;20373;-84
2021/12/14 04:24:12;;;;;;;20.38;13.70;;;;;;;6.92;97.73;102590.84;5091564;28;20051;-84
2021/12/14 04:26:44;;;;;;;21.25;13.32;;;;;;;6.90;97.66;102611.81;5091263;28;20024;-85
2021/12/14 04:29:14;;;;;;;18.87;13.23;;;;;;;6.87;97.74;102598.84;5089781;28;20032;-84
2021/12/14 04:31:42;;;;;;;18.42;13.68;;;;;;;6.91;97.84;102610.91;5089710;28;20533;-84
2021/12/14 04:34:08;;;;;;;18.98;13.77;;;;;;;6.87;97.96;102597.97;5091042;28;20103;-84
2021/12/14 04:36:34;;;;;;;20.20;14.10;;;;;;;6.91;97.79;102600.47;5089849;28;20132;-84
2021/12/14 04:39:31;;;;;;;19.05;13.55;;;;;;;6.86;98.15;102576.19;5088278;28;20028;-84
2021/12/14 04:53:25;;;;;;;19.95;14.38;;;;;;;6.90;97.82;102576.97;5090780;28;20043;-83
2021/12/14 04:55:54;;;;;;;20.95;14.93;;;;;;;6.89;98.15;102583.94;5096003;28;20396;-83
2021/12/14 04:58:42;;;;;;;19.75;14.93;;;;;;;6.84;97.88;102562.31;5081938;28;20106;-85
2021/12/14 05:01:12;;;;;;;22.15;15.55;;;;;;;6.89;97.88;102581.34;5085234;28;20120;-83
2021/12/14 05:03:37;;;;;;;21.40;15.02;;;;;;;6.89;97.76;102585.72;5084410;28;20024;-83
2021/12/14 05:06:46;;;;;;;21.65;14.32;;;;;;;6.89;97.79;102581.34;5089240;28;20055;-84
2021/12/14 05:11:42;;;;;;;22.00;14.52;;;;;;;6.89;97.83;102586.56;5091901;28;19920;-84
2021/12/14 05:14:10;;;;;;;20.30;14.60;;;;;;;6.89;97.87;102586.56;5088309;28;20032;-84
2021/12/14 05:16:36;;;;;;;20.58;14.57;;;;;;;6.89;97.98;102570.88;5089971;28;20460;-84
2021/12/14 05:19:05;;;;;;;21.85;15.00;;;;;;;6.84;97.85;102567.53;5089948;28;20031;-84
2021/12/14 05:21:37;;;;;;;23.38;15.88;;;;;;;6.85;97.79;102574.50;5088647;28;20024;-84
2021/12/14 05:24:06;;;;;;;22.15;15.60;;;;;;;6.86;98.15;102568.34;5089561;28;20421;-84
2021/12/14 05:26:32;;;;;;;20.77;14.45;;;;;;;6.80;97.73;102559.81;5089216;28;20325;-79
2021/12/14 05:28:57;;;;;;;23.05;15.45;;;;;;;6.86;98.02;102570.09;5089886;28;20115;-84
2021/12/14 05:31:23;;;;;;;21.90;15.68;;;;;;;6.85;97.95;102571.00;5084387;28;20084;-84
2021/12/14 05:33:50;;;;;;;22.55;15.55;;;;;;;6.80;98.08;102570.28;5089544;28;20057;-84
2021/12/14 05:36:18;;;;;;;23.80;15.77;;;;;;;6.82;98.13;102571.09;5090025;28;20067;-85
2021/12/14 05:38:58;;;;;;;26.55;17.38;;;;;;;6.85;98.02;102569.25;5089525;28;20024;-84
2021/12/14 05:44:17;;;;;;;24.45;16.42;;;;;;;6.84;97.93;102562.31;5090219;28;20050;-83
2021/12/14 05:46:50;;;;;;;23.73;15.98;;;;;;;6.83;98.19;102567.59;5086197;28;20054;-84
2021/12/14 05:49:22;;;;;;;25.23;17.45;;;;;;;6.80;98.07;102571.13;5088146;28;20024;-85
2021/12/14 05:51:49;;;;;;;25.67;16.73;;;;;;;6.83;98.13;102573.69;5084027;28;20061;-84
2021/12/14 05:54:27;;;;;;;24.83;16.73;;;;;;;6.84;98.11;102582.38;5088717;28;20027;-85
2021/12/14 05:56:55;;;;;;;28.00;18.50;;;;;;;6.81;98.01;102574.63;5089875;28;20031;-84
2021/12/14 05:59:23;;;;;;;29.40;18.30;;;;;;;6.81;97.87;102575.50;5089086;28;20157;-84
2021/12/14 06:01:50;;;;;;;27.60;19.00;;;;;;;6.81;98.16;102585.94;5087745;28;20400;-84
2021/12/14 06:04:16;;;;;;;29.50;18.90;;;;;;;6.81;98.04;102598.19;5083954;28;20099;-84
2021/12/14 06:06:47;;;;;;;28.83;18.98;;;;;;;6.80;98.22;102596.44;5088668;28;20103;-79
2021/12/14 06:09:16;;;;;;;28.77;17.95;;;;;;;6.78;97.91;102587.78;5087518;28;20024;-83
2021/12/14 06:11:44;;;;;;;29.52;18.27;;;;;;;6.80;98.16;102604.28;5081775;28;20482;-84
2021/12/14 06:14:21;;;;;;;30.20;19.40;;;;;;;6.80;98.20;102599.91;5093374;28;20476;-84
2021/12/14 06:16:49;;;;;;;30.33;19.25;;;;;;;6.77;98.26;102604.38;5082735;28;20088;-78
2021/12/14 06:19:19;;;;;;;29.17;19.08;;;;;;;6.79;98.11;102606.03;5088213;28;20031;-84
2021/12/14 06:21:48;;;;;;;29.15;19.23;;;;;;;6.78;98.42;102603.47;5078529;28;20028;-84
2021/12/14 06:24:14;;;;;;;30.10;19.10;;;;;;;6.77;98.12;102610.47;5087464;28;20455;-85
2021/12/14 06:26:50;;;;;;;28.75;19.02;;;;;;;6.77;98.24;102602.63;5088025;28;20028;-85
2021/12/14 06:29:22;;;;;;;32.70;19.88;;;;;;;6.79;98.38;102610.41;5089285;28;20544;-84
2021/12/14 06:31:49;;;;;;;32.58;20.00;;;;;;;6.77;98.17;102601.75;5082754;28;20153;-84
2021/12/14 06:34:29;;;;;;;32.17;20.38;;;;;;;6.81;98.42;102604.25;5089705;28;20051;-84
2021/12/14 06:37:03;;;;;;;31.55;19.27;;;;;;;6.81;98.18;102603.41;5077444;28;20040;-84
2021/12/14 06:39:49;;;;;;;34.67;20.75;;;;;;;6.80;98.25;102607.75;5086669;28;21143;-84
2021/12/14 06:42:14;;;;;;;34.28;21.05;;;;;;;6.79;98.33;102603.41;5088599;28;20097;-83
2021/12/14 06:44:39;;;;;;;33.58;22.48;;;;;;;6.77;98.07;102607.84;5087972;28;20488;-86
2021/12/14 06:47:05;;;;;;;34.72;22.25;;;;;;;6.77;98.22;102613.06;5089871;28;20388;-85
2021/12/14 06:49:31;;;;;;;35.40;21.13;;;;;;;6.77;98.47;102607.84;5088204;28;20543;-79
2021/12/14 06:51:56;;;;;;;36.15;21.80;;;;;;;6.78;98.38;102619.16;5088063;28;20491;-85
2021/12/14 06:54:28;;;;;;;33.55;21.60;;;;;;;6.77;98.27;102623.53;5078877;28;20479;-84
2021/12/14 06:57:00;;;;;;;37.17;21.90;;;;;;;6.77;98.50;102622.69;5088682;28;20123;-85
2021/12/14 06:59:26;;;;;;;37.78;22.83;;;;;;;6.78;98.44;102630.47;5088699;28;20452;-85
2021/12/14 07:02:00;;;;;;;34.92;21.98;;;;;;;6.80;98.58;102636.53;5081252;28;20031;-85
2021/12/14 07:04:35;;;;;;;36.67;21.98;;;;;;;6.80;98.28;102630.44;5088425;28;20118;-84
2021/12/14 07:07:06;;;;;;;36.00;22.40;;;;;;;6.78;98.35;102633.09;5092687;28;20032;-85
2021/12/14 07:09:45;;;;;;;34.97;21.80;;;;;;;6.76;98.53;102632.28;5084745;28;20133;-85
2021/12/14 07:12:17;;;;;;;38.63;22.45;;;;;;;6.77;98.46;102639.22;5089525;28;20541;-85
2021/12/14 07:14:58;;;;;;;39.13;22.65;;;;;;;6.79;98.65;102636.56;5088373;28;20028;-80
2021/12/14 07:17:31;;;;;;;36.50;22.33;;;;;;;6.77;98.41;102641.00;5087788;28;20028;-85
2021/12/14 07:20:24;;;;;;;36.65;23.33;;;;;;;6.80;98.55;102646.13;5080326;28;20032;-85
2021/12/14 07:22:57;;;;;;;38.03;22.85;;;;;;;6.75;98.63;102651.50;5088306;28;20484;-85
2021/12/14 07:25:38;;;;;;;37.80;22.67;;;;;;;6.81;98.61;102667.06;5087529;28;20024;-85
2021/12/14 07:28:13;;;;;;;39.33;23.80;;;;;;;6.71;98.68;102655.13;5081423;28;20570;-86
2021/12/14 07:30:51;;;;;;;39.55;23.27;;;;;;;6.76;98.17;102666.31;5088824;28;20020;-85
2021/12/14 07:33:20;;;;;;;38.72;23.67;;;;;;;6.77;98.46;102670.63;5088518;28;20383;-85
2021/12/14 07:35:46;;;;;;;39.33;23.17;;;;;;;6.78;98.64;102672.34;5088404;28;20365;-85
2021/12/14 07:38:30;;;;;;;35.75;22.50;;;;;;;6.81;98.57;102669.66;5091833;28;20042;-84
2021/12/14 07:41:13;;;;;;;40.35;23.23;;;;;;;6.79;98.52;102667.97;5092063;28;20446;-85
2021/12/14 07:44:14;;;;;;;40.47;24.17;;;;;;;6.80;98.63;102673.16;5087194;28;20044;-85
2021/12/14 07:46:48;;;;;;;39.53;23.80;;;;;;;6.76;98.68;102666.31;5088345;28;20043;-85
2021/12/14 07:49:29;;;;;;;40.03;23.13;;;;;;;6.78;98.57;102676.72;5084855;28;20020;-85
2021/12/14 07:52:17;;;;;;;40.83;25.13;;;;;;;6.74;98.43;102675.09;5089179;28;20024;-85
2021/12/14 07:54:58;;;;;;;39.75;24.38;;;;;;;6.78;98.72;102688.03;5092015;28;20054;-86
2021/12/14 07:57:33;;;;;;;41.33;25.15;;;;;;;6.78;98.67;102689.78;5083954;28;20373;-84
2021/12/14 08:00:01;;;;;;;42.78;24.92;;;;;;;6.79;98.91;102709.81;5092014;28;20187;-85
2021/12/14 08:02:32;;;;;;;40.33;24.45;;;;;;;6.73;98.47;102697.78;5082791;28;20107;-86
2021/12/14 08:05:01;;;;;;;40.53;25.17;;;;;;;6.79;98.58;102707.22;5089130;28;20028;-86
2021/12/14 08:07:34;;;;;;;42.53;24.90;;;;;;;6.77;98.94;102702.03;5089869;28;20383;-86
2021/12/14 08:10:24;;;;;;;43.55;23.52;;;;;;;6.75;98.73;102698.59;5090448;28;20032;-85
2021/12/14 08:13:09;;;;;;;43.17;24.42;;;;;;;6.82;98.80;102710.63;5088304;28;20033;-85
2021/12/14 08:15:41;;;;;;;38.33;24.13;;;;;;;6.82;98.56;102704.53;5089744;28;20030;-87
2021/12/14 08:18:17;;;;;;;41.67;24.40;;;;;;;6.81;98.65;102708.91;5085947;28;20020;-85
2021/12/14 08:21:01;;;;;;;42.50;25.58;;;;;;;6.81;98.46;102703.69;5087515;28;20032;-86
2021/12/14 08:23:57;;;;;;;43.13;25.52;;;;;;;6.80;98.83;102701.94;5087406;28;20050;-86
2021/12/14 08:26:29;;;;;;;44.58;26.17;;;;;;;6.81;98.64;102708.91;5089994;28;20026;-85
2021/12/14 08:29:02;;;;;;;;;;;;;;;6.88;98.61;102705.22;5090355;28;20468;-86
2021/12/14 08:31:34;;;;;;;46.60;25.88;;;;;;;6.84;98.91;102711.44;5088055;28;19912;-85
2021/12/14 08:34:06;;;;;;;44.20;26.45;;;;;;;6.83;98.49;102706.25;5089404;28;20020;-86
2021/12/14 08:36:42;;;;;;;41.35;25.30;;;;;;;6.80;98.69;102701.94;5082792;28;20047;-86
2021/12/14 08:39:24;;;;;;;45.85;26.65;;;;;;;6.85;98.68;102707.06;5081388;28;20400;-86
2021/12/14 08:42:08;;;;;;;47.38;25.73;;;;;;;6.85;98.78;102715.78;5089599;28;20092;-85
2021/12/14 08:44:38;;;;;;;47.45;26.30;;;;;;;6.83;98.85;102714.09;5089617;28;20032;-85
2021/12/14 08:47:08;;;;;;;46.20;26.08;;;;;;;6.86;98.83;102714.88;5091534;28;20040;-85
2021/12/14 08:49:35;;;;;;;45.30;25.77;;;;;;;6.80;98.80;102701.06;5089972;28;20095;-85
2021/12/14 08:52:00;;;;;;;43.92;27.13;;;;;;;6.80;98.94;102701.94;5091697;28;20073;-85
2021/12/14 08:54:29;;;;;;;44.00;26.73;;;;;;;6.82;98.73;102710.63;5090022;28;20023;-85
2021/12/14 08:57:08;;;;;;;45.50;26.65;;;;;;;6.87;98.72;102713.97;5087721;28;20035;-83
2021/12/14 08:59:37;;;;;;;42.63;26.08;;;;;;;6.91;98.61;102731.28;5090093;28;20020;-84
2021/12/14 09:02:07;;;;;;;47.67;27.25;;;;;;;6.91;98.96;102727.81;5090765;28;20055;-84
2021/12/14 09:04:39;;;;;;;43.97;26.30;;;;;;;6.94;98.92;102725.09;5088544;28;20031;-82
2021/12/14 09:07:10;;;;;;;48.70;27.52;;;;;;;6.94;99.09;102725.09;5090559;28;20027;-83
2021/12/14 09:09:36;;;;;;;46.65;27.13;;;;;;;6.96;98.96;102727.69;5089541;28;20024;-82
2021/12/14 09:12:27;;;;;;;48.35;27.77;;;;;;;6.96;99.02;102727.69;5091185;28;20028;-84
2021/12/14 09:14:55;;;;;;;47.22;27.48;;;;;;;6.96;98.81;102728.53;5094258;28;20036;-84
2021/12/14 09:17:23;;;;;;;48.83;27.33;;;;;;;7.01;98.87;102729.25;5087814;28;20028;-86
2021/12/14 09:20:03;;;;;;;43.47;27.05;;;;;;;7.03;99.03;102739.69;5090364;28;20059;-86
2021/12/14 09:22:34;;;;;;;45.50;27.63;;;;;;;7.02;98.97;102727.50;5072882;28;20028;-85
2021/12/14 09:25:01;;;;;;;48.03;27.02;;;;;;;7.07;99.03;102736.06;5090362;28;20116;-84
2021/12/14 09:27:30;;;;;;;46.38;27.20;;;;;;;7.07;99.00;102730.84;5089461;28;20059;-84
2021/12/14 09:29:57;;;;;;;47.13;27.17;;;;;;;7.08;99.07;102727.31;5090279;28;20024;-84
2021/12/14 09:32:27;;;;;;;48.25;28.92;;;;;;;7.16;99.07;102741.03;5085789;28;20023;-84
2021/12/14 09:34:58;;;;;;;50.95;28.05;;;;;;;7.18;98.70;102736.59;5086719;28;20562;-84
2021/12/14 09:37:26;;;;;;;47.63;28.15;;;;;;;7.16;98.69;102723.56;5090101;28;20048;-85
2021/12/14 09:39:57;;;;;;;48.92;29.23;;;;;;;7.20;98.56;102733.06;5090421;28;20020;-83
2021/12/14 09:42:27;;;;;;;51.28;29.50;;;;;;;7.26;98.53;102737.25;5089625;28;20051;-84
2021/12/14 09:44:57;;;;;;;49.35;28.98;;;;;;;7.28;98.62;102732.84;5089196;28;20028;-84
2021/12/14 09:47:26;;;;;;;49.65;28.75;;;;;;;7.29;98.14;102731.94;5089964;28;20099;-84
2021/12/14 09:49:53;;;;;;;51.55;29.17;;;;;;;7.32;98.30;102728.38;5090034;28;20055;-84
2021/12/14 09:52:28;;;;;;;53.05;28.27;;;;;;;7.33;98.19;102728.31;5089340;28;20035;-83
2021/12/14 09:54:54;;;;;;;49.03;29.25;;;;;;;7.33;97.81;102717.84;5090451;28;20024;-84
2021/12/14 09:57:25;;;;;;;49.35;29.40;;;;;;;7.32;98.12;102707.41;5088038;28;20039;-84
2021/12/14 09:59:52;;;;;;;53.55;30.38;;;;;;;7.32;98.04;102705.66;5088682;28;20024;-84
2021/12/14 10:02:26;;;;;;;48.33;28.73;;;;;;;7.41;97.78;102710.59;5088956;28;20024;-84
2021/12/14 10:04:56;;;;;;;49.92;29.17;;;;;;;7.43;97.79;102707.94;5089524;28;20092;-84
2021/12/14 10:07:23;;;;;;;50.28;29.52;;;;;;;7.43;98.05;102713.16;5088528;28;20447;-83
2021/12/14 10:09:54;;;;;;;49.78;28.55;;;;;;;7.45;97.88;102712.22;5090030;28;20032;-84
2021/12/14 10:15:40;;;;;;;48.58;28.58;;;;;;;7.54;97.87;102714.53;5085598;28;20062;-84
2021/12/14 10:18:12;;;;;;;48.03;28.23;;;;;;;7.54;97.93;102730.25;5079198;28;20046;-83
2021/12/14 10:20:46;;;;;;;49.95;28.58;;;;;;;7.53;97.64;102718.06;5083121;28;20109;-84
2021/12/14 10:23:14;;;;;;;52.08;29.45;;;;;;;7.55;97.83;102721.50;5090440;28;20101;-85
2021/12/14 10:25:40;;;;;;;50.22;28.05;;;;;;;7.63;97.76;102725.66;5088400;28;20072;-84
2021/12/14 10:28:06;;;;;;;48.83;28.52;;;;;;;7.62;97.58;102724.81;5088093;28;20055;-84
2021/12/14 10:30:37;;;;;;;48.78;28.98;;;;;;;7.68;97.40;102729.00;5088024;28;20035;-83
2021/12/14 10:33:04;;;;;;;51.45;28.85;;;;;;;7.66;97.37;102712.47;5089828;28;20101;-84
2021/12/14 10:35:39;;;;;;;52.28;29.73;;;;;;;7.70;97.32;102725.41;5087482;28;20471;-83
2021/12/14 10:38:18;;;;;;;50.78;29.35;;;;;;;7.77;97.33;102726.06;5089451;28;20044;-83
2021/12/14 10:43:32;;;;;;;57.45;28.60;;;;;;;7.80;97.07;102739.06;5088837;28;20357;-83
2021/12/14 10:46:02;;;;;;;51.75;30.00;;;;;;;7.83;97.09;102733.72;5089174;28;21614;-83
2021/12/14 10:48:36;;;;;;;51.75;28.63;;;;;;;7.83;97.12;102741.59;5088575;28;20032;-78
2021/12/14 10:51:05;;;;;;;48.85;28.83;;;;;;;7.85;96.98;102739.78;5079281;28;20578;-84
2021/12/14 10:53:31;;;;;;;55.50;29.52;;;;;;;7.81;96.61;102720.69;5078372;28;20103;-83
2021/12/14 10:56:09;;;;;;;49.25;29.58;;;;;;;7.87;96.94;102724.88;5079958;28;20028;-84
2021/12/14 10:58:37;;;;;;;49.78;30.40;;;;;;;7.85;96.72;102724.06;5079023;28;20028;-84
2021/12/14 11:01:15;;;;;;;51.83;29.52;;;;;;;7.94;96.93;102731.63;5082551;28;20027;-83
2021/12/14 11:03:46;;;;;;;55.92;30.52;;;;;;;7.91;96.62;102720.38;5081970;28;20044;-83
2021/12/14 11:06:16;;;;;;;54.22;31.17;;;;;;;7.98;96.46;102721.88;5081094;28;20634;-84
2021/12/14 11:11:18;;;;;;;52.60;31.45;;;;;;;7.97;96.66;102700.06;5081384;28;20036;-84
2021/12/14 11:13:52;;;;;;;50.47;30.05;;;;;;;7.96;96.55;102708.84;5087067;28;20047;-84
2021/12/14 11:18:07;;;;;;;55.00;29.48;;;;;;;8.04;96.48;102711.22;5088082;28;20112;-84
2021/12/14 11:19:10;;;;;;;52.43;31.03;;;;;;;8.03;96.58;102694.63;5086810;28;20398;-84
2021/12/14 11:21:35;;;;;;;51.28;30.25;;;;;;;8.11;96.47;102710.09;5078603;28;20111;-83
2021/12/14 11:24:00;;;;;;;54.78;31.20;;;;;;;8.09;96.76;102694.44;5078530;28;20093;-83
2021/12/14 11:26:34;;;;;;;54.80;30.83;;;;;;;8.09;96.39;102686.56;5082031;28;20024;-83
2021/12/14 11:29:04;;;;;;;55.63;31.25;;;;;;;8.15;96.62;102698.59;5084652;28;20422;-84
2021/12/14 11:31:43;;;;;;;52.58;30.75;;;;;;;8.21;96.91;102701.00;5081893;28;20020;-83
2021/12/14 11:34:37;;;;;;;55.83;31.65;;;;;;;8.23;96.49;102693.09;5084095;28;20097;-83
2021/12/14 11:37:08;;;;;;;51.85;30.70;;;;;;;8.25;95.75;102691.28;5082319;28;20036;-83
2021/12/14 11:39:41;;;;;;;53.80;30.98;;;;;;;8.22;95.83;102687.00;5080178;28;20131;-84
2021/12/14 11:42:10;;;;;;;53.83;31.73;;;;;;;8.30;95.98;102694.59;5083476;28;20031;-83
2021/12/14 11:44:38;;;;;;;54.05;31.42;;;;;;;8.32;95.97;102685.75;5084191;28;20028;-83
2021/12/14 11:47:11;;;;;;;59.15;32.60;;;;;;;8.34;96.04;102688.34;5083069;28;20073;-83
2021/12/14 11:49:48;;;;;;;54.55;31.52;;;;;;;8.37;96.18;102694.34;5079887;28;20089;-83
2021/12/14 11:52:33;;;;;;;57.28;31.58;;;;;;;8.39;95.92;102687.28;5081961;28;20744;-83
2021/12/14 11:54:59;;;;;;;54.10;31.10;;;;;;;8.39;95.82;102691.66;5082114;28;20448;-84
2021/12/14 11:57:32;;;;;;;53.47;32.20;;;;;;;8.41;95.36;102688.09;5081544;28;20111;-83
2021/12/14 12:00:14;;;;;;;53.03;32.28;;;;;;;8.39;95.28;102686.41;5081066;28;20023;-83
2021/12/14 12:02:39;;;;;;;54.13;30.73;;;;;;;8.43;95.20;102699.41;5079385;28;20417;-86
2021/12/14 12:05:30;;;;;;;52.78;31.92;;;;;;;8.48;95.77;102691.38;5078830;28;20024;-83
2021/12/14 12:11:06;;;;;;;55.88;32.55;;;;;;;8.50;95.78;102689.53;5080327;28;20062;-83
2021/12/14 12:13:37;;;;;;;60.45;32.83;;;;;;;8.48;95.92;102684.34;5078447;28;20543;-83
2021/12/14 12:16:22;;;;;;;60.08;31.63;;;;;;;8.55;95.73;102697.25;5081496;28;20032;-83
2021/12/14 12:19:03;;;;;;;59.55;32.45;;;;;;;8.56;95.59;102694.56;5079137;28;20020;-83
2021/12/14 12:21:31;;;;;;;57.25;33.45;;;;;;;8.53;95.77;102689.44;5074868;28;20059;-83
2021/12/14 12:23:57;;;;;;;58.42;32.97;;;;;;;8.56;95.64;102689.31;5078333;28;20968;-83
2021/12/14 12:26:25;;;;;;;58.90;34.25;;;;;;;8.52;95.57;102679.84;5074620;28;20113;-83